Flight Track Log - Related Links

Times and Time Zones

All times are in EST time to prevent confusion due to time zone crossing. See the EJA951 flight status page for this flight to view local times or setup timezone preferences in your user account.

Time Position Orientation Groundspeed Altitude Reporting Facility
EST Latitude Longitude Course Direction KTS MPH feet Rate Location/Type
12:13PM 42.3500 -87.8667 166° South 198 228 5,300  Level Chicago TRACON
12:14PM 42.2833 -87.8667 180° South 256 295 7,800 2,750 Climbing Chicago TRACON
12:15PM 42.2000 -87.8500 172° South 293 337 10,800 2,596 Climbing Chicago TRACON
12:16PM 42.1061 -87.8353 173° South 307 353 13,900 2,098 Climbing Chicago Center
12:17PM 41.9869 -87.8172 174° South 360 414 15,800 1,645 Climbing Chicago Center
12:18PM 41.8769 -87.8047 175° South 389 448 17,300 1,210 Climbing Chicago Center
12:19PM 41.7611 -87.8222 186° South 416 479 18,300 1,200 Climbing Chicago Center
12:20PM 41.6417 -87.8414 187° South 425 489 19,800 1,440 Climbing Chicago Center
12:21PM 41.5161 -87.8617 187° South 443 510 21,300 1,452 Climbing Chicago Center
12:23PM 41.3844 -87.8811 186° South 460 529 22,800 1,500 Climbing Chicago Center
12:24PM 41.2489 -87.8922 184° South 476 548 24,400 1,645 Climbing Chicago Center
12:25PM 41.0825 -87.8889 179° South 493 567 26,200 1,597 Climbing Chicago Center
12:26PM 40.9419 -87.8836 178° South 501 577 27,700 1,452 Climbing Chicago Center
12:27PM 40.7983 -87.8792 179° South 511 588 29,200 1,452 Climbing Chicago Center
12:28PM 40.6519 -87.8750 179° South 521 600 30,700 1,452 Climbing Chicago Center
12:29PM 40.5031 -87.8697 178° South 531 611 32,200 1,452 Climbing Chicago Center
12:30PM 40.3528 -87.8653 179° South 539 620 33,700 1,584 Climbing Chicago Center
12:31PM 40.1756 -87.8575 178° South 539 620 35,500 1,570 Climbing Chicago Center
12:32PM 40.0756 -87.8533 178° South 537 618 36,500 1,415 Climbing Indianapolis Center
12:33PM 39.9278 -87.8394 176° South 535 616 38,000 1,306 Climbing Indianapolis Center
12:34PM 39.7872 -87.7914 165° South 528 608 39,200 968 Climbing Indianapolis Center
12:35PM 39.6497 -87.7442 165° South 517 595 40,000 390 Climbing Indianapolis Center
12:36PM 39.4800 -87.6903 166° South 519 597 40,000  Level Indianapolis Center
12:37PM 39.3353 -87.6433 166° South 531 611 40,000  Level Indianapolis Center
12:38PM 39.1914 -87.5983 166° South 530 610 40,000  Level Indianapolis Center
12:39PM 39.0464 -87.5544 167° South 534 615 40,000  Level Indianapolis Center
12:40PM 38.9011 -87.5100 167° South 535 616 40,000  Level Indianapolis Center
12:41PM 38.7547 -87.4642 166° South 539 620 40,000  Level Indianapolis Center
12:42PM 38.6097 -87.4189 166° South 537 618 40,000  Level Indianapolis Center
12:43PM 38.4350 -87.3653 166° South 541 623 40,000  Level Indianapolis Center
12:44PM 38.2900 -87.3225 167° South 542 624 40,000  Level Indianapolis Center
12:45PM 38.1456 -87.2786 167° South 543 625 40,000 242 Level Indianapolis Center
12:46PM 38.0006 -87.2342 166° South 541 623 40,500 484 Climbing Indianapolis Center
12:47PM 37.8567 -87.1897 166° South 535 616 41,000 242 Climbing Indianapolis Center
12:48PM 37.7119 -87.1464 167° South 534 615 41,000  Level Indianapolis Center
12:49PM 37.5381 -87.0936 166° South 534 615 41,000  Level Indianapolis Center
12:50PM 37.3919 -87.0528 167° South 537 618 41,000  Level Indianapolis Center
12:51PM 37.2431 -87.0100 167° South 543 625 41,000  Level Indianapolis Center
12:52PM 37.0947 -86.9667 167° South 542 624 41,000  Level Indianapolis Center
12:53PM 37.0206 -86.9419 165° South 543 625 41,000  Level Memphis Center
12:54PM 36.8722 -86.8983 167° South 541 623 41,000  Level Memphis Center
12:55PM 36.7242 -86.8542 167° South 542 624 41,000  Level Memphis Center
12:56PM 36.5506 -86.8028 167° South 541 623 41,000  Level Memphis Center
12:57PM 36.4236 -86.7664 167° South 545 627 41,000  Level Memphis Center
12:58PM 36.2678 -86.7231 167° South 547 629 41,000  Level Memphis Center
12:59PM 36.0922 -86.6647 165° South 547 629 41,000  Level Memphis Center
01:00PM 35.9469 -86.5919 158° South 554 638 41,000  Level Memphis Center
01:01PM 35.8031 -86.5200 158° South 552 635 41,000  Level Memphis Center
01:02PM 35.6594 -86.4497 158° South 551 634 41,000  Level Memphis Center
01:03PM 35.5169 -86.3789 158° South 548 631 41,000  Level Memphis Center
01:04PM 35.3731 -86.3089 158° South 549 632 41,000  Level Memphis Center
01:05PM 35.2286 -86.2386 158° South 552 635 41,000  Level Memphis Center
01:06PM 35.0756 -86.1636 158° South 552 635 41,000  Level Memphis Center
01:07PM 34.8878 -86.0694 158° South 552 635 41,000  Level Atlanta Center
01:08PM 34.7428 -86.0003 159° South 552 635 41,000  Level Atlanta Center
01:09PM 34.5978 -85.9314 159° South 552 635 41,000  Level Atlanta Center
01:10PM 34.4508 -85.8625 159° South 552 635 41,000  Level Atlanta Center
01:11PM 34.3078 -85.7967 159° South 552 635 41,000  Level Atlanta Center
01:12PM 34.1625 -85.7283 159° South 552 635 41,000  Level Atlanta Center
01:13PM 34.0236 -85.6603 158° South 546 628 41,000  Level Atlanta Center
01:14PM 33.8783 -85.5950 160° South 551 634 41,000  Level Atlanta Center
01:15PM 33.7247 -85.5225 159° South 551 634 41,000  Level Atlanta Center
01:16PM 33.5817 -85.4575 159° South 546 628 41,000  Level Atlanta Center
01:17PM 33.4361 -85.3906 159° South 555 639 41,000  Level Atlanta Center
01:18PM 33.2928 -85.3261 159° South 550 633 41,000  Level Atlanta Center
01:19PM 33.1517 -85.2594 158° South 550 633 41,000  Level Atlanta Center
01:20PM 33.0061 -85.1981 161° South 550 633 41,000  Level Atlanta Center
01:21PM 32.8625 -85.1492 164° South 549 632 41,000  Level Atlanta Center
01:22PM 32.7314 -85.1006 163° South 544 626 41,000  Level Atlanta Center
01:23PM 32.5858 -85.0519 164° South 544 626 41,000  Level Atlanta Center
01:24PM 32.4381 -85.0011 164° South 550 633 41,000  Level Atlanta Center
01:25PM 32.2942 -84.9528 164° South 550 633 41,000  Level Atlanta Center
01:26PM 32.1528 -84.9025 163° South 545 627 41,000  Level Atlanta Center
01:27PM 32.0089 -84.8569 165° South 539 620 41,000  Level Atlanta Center
01:29PM 31.7311 -84.7636 164° South 541 623 41,000  Level Jacksonville Center
01:30PM 31.5897 -84.7169 164° South 541 623 41,000  Level Jacksonville Center
01:31PM 31.4464 -84.6678 164° South 541 623 41,000  Level Jacksonville Center
01:32PM 31.3050 -84.6239 165° South 536 617 41,000  Level Jacksonville Center
01:33PM 31.1617 -84.5750 164° South 531 611 41,000  Level Jacksonville Center
01:34PM 31.0203 -84.5289 164° South 531 611 41,000  Level Jacksonville Center
01:35PM 30.8808 -84.4806 163° South 531 611 41,000  Level Jacksonville Center
01:36PM 30.7394 -84.4344 164° South 531 611 41,000  Level Jacksonville Center
01:37PM 30.5981 -84.3889 164° South 531 611 41,000  Level Jacksonville Center
01:38PM 30.4778 -84.3267 156° South 531 611 41,000  Level Jacksonville Center
01:39PM 30.3450 -84.2381 150° Southeast 540 621 41,000  Level Jacksonville Center
01:40PM 30.2039 -84.1447 150° Southeast 534 615 41,000  Level Jacksonville Center
01:41PM 30.0689 -84.0711 155° Southeast 534 615 41,000  Level Jacksonville Center
01:42PM 29.9317 -84.0167 161° South 523 602 41,000  Level Jacksonville Center
01:43PM 29.7922 -83.9625 161° South 523 602 41,000  Level Jacksonville Center
01:44PM 29.6675 -83.9131 161° South 523 602 41,000  Level Jacksonville Center
01:45PM 29.5300 -83.8569 160° South 523 602 41,000  Level Jacksonville Center
01:46PM 29.3928 -83.8031 161° South 523 602 41,000  Level Jacksonville Center
01:47PM 29.2533 -83.7469 161° South 523 602 41,000  Level Jacksonville Center
01:48PM 29.1158 -83.6936 161° South 523 602 41,000  Level Jacksonville Center
01:49PM 28.9783 -83.6403 161° South 523 602 41,000  Level Jacksonville Center
01:50PM 28.8408 -83.5847 161° South 523 602 41,000 -69 Level Jacksonville Center
01:52PM 28.5672 -83.4778 161° South 513 590 40,800 -971 Descending Miami Center
01:53PM 28.4319 -83.4250 161° South 513 590 38,200 -2,650 Descending Miami Center
01:54PM 28.2967 -83.3722 161° South 513 590 35,500 -1,600 Descending Miami Center
01:55PM 28.1550 -83.3711 180° South 513 590 35,000 -800 Descending Miami Center
01:56PM 28.0250 -83.3378 167° South 520 598 33,900 -1,350 Descending Miami Center
01:57PM 27.8978 -83.2458 147° Southeast 528 608 32,300 -1,600 Descending Miami Center
01:58PM 27.7664 -83.1542 148° Southeast 540 621 30,700 -1,800 Descending Miami Center
01:59PM 27.6389 -83.0653 148° Southeast 540 621 28,700 -2,050 Descending Miami Center
02:00PM 27.5150 -82.9814 149° Southeast 535 616 26,600 -2,100 Descending Miami Center
02:01PM 27.3997 -82.8981 147° Southeast 517 595 24,500 -2,050 Descending Miami Center
02:02PM 27.2761 -82.8122 148° Southeast 491 565 22,500 -1,900 Descending Miami Center
02:03PM 27.1806 -82.7467 149° Southeast 464 534 20,700 -1,900 Descending Miami Center
02:04PM 27.0731 -82.6736 149° Southeast 458 527 18,700 -1,950 Descending Miami Center
02:05PM 26.9633 -82.5981 148° Southeast 458 527 16,800 -1,900 Descending Miami Center
02:06PM 26.8617 -82.5281 148° Southeast 445 512 14,900 -1,800 Descending Miami Center
02:07PM 26.7622 -82.4581 148° Southeast 431 496 13,200 -1,800 Descending Miami Center
02:08PM 26.6625 -82.3931 150° Southeast 426 490 11,300 -1,050 Descending Miami Center
02:09PM 26.5647 -82.3233 147° Southeast 420 483 11,100 -300 Descending Miami Center
02:10PM 26.4714 -82.2542 146° Southeast 388 447 10,700 -900 Descending Miami Center
02:11PM 26.4022 -82.2044 147° Southeast 325 374 9,300 -1,450 Descending Miami Center
02:12PM 26.3331 -82.1528 146° Southeast 296 341 7,800 -1,500 Descending Miami Center
02:13PM 26.2789 -82.0947 136° Southeast 279 321 6,300 -1,600 Descending Miami Center
02:14PM 26.2353 -82.0303 127° Southeast 262 302 4,600 -1,700 Descending Miami Center
02:16PM 26.0833 -81.9411 90° East  Level FlightAware Approximate
02:23PM 26.1500 -81.7667 66° East  Level FlightAware Approximate
02:24PM 26.1524 -81.7756 66° East  Level Estimated
02:25PM 26.1524 -81.7756 66° East  Level Estimated
02:26PM 26.1524 -81.7756 66° East  Level Estimated
02:27PM 26.1524 -81.7756 66° East  Level Estimated
02:28PM 26.1524 -81.7756 66° East  Level Estimated

Login

Don't have an account? Register now (free) for customized features, flight alerts, and more!